Time;durP1;ratioP1;P1;durP2;ratioP2;P2;SDS_P1;SDS_P2;PMS_P1;PMS_P2;Temp;Humidity;BMP_temperature;BMP_pressure;BME280_temperature;BME280_humidity;BME280_pressure;Samples;Min_cycle;Max_cycle;Signal;HPM_P1;HPM_P2
2020/12/08 00:00:10;;;;;;;7.28;5.20;;;4.90;85.50;;;;;;5052058;28;20043;-85
2020/12/08 00:02:36;;;;;;;10.68;6.88;;;4.90;85.50;;;;;;5068608;28;20058;-85
2020/12/08 00:05:03;;;;;;;7.05;5.32;;;4.90;85.40;;;;;;5052723;28;20036;-85
2020/12/08 00:07:29;;;;;;;9.20;6.18;;;4.90;85.50;;;;;;5050722;28;20375;-85
2020/12/08 00:09:55;;;;;;;8.02;5.57;;;4.80;85.50;;;;;;5068601;28;20039;-85
2020/12/08 00:12:25;;;;;;;10.43;6.95;;;4.80;85.50;;;;;;5045686;28;20124;-86
2020/12/08 00:14:51;;;;;;;8.13;5.30;;;4.90;85.60;;;;;;5069220;28;20039;-86
2020/12/08 00:17:17;;;;;;;12.38;8.65;;;4.90;85.50;;;;;;5070108;28;20103;-86
2020/12/08 00:19:42;;;;;;;9.13;6.43;;;4.80;85.50;;;;;;5069841;28;20070;-85
2020/12/08 00:22:08;;;;;;;8.77;5.35;;;4.90;85.60;;;;;;5070718;28;20396;-86
2020/12/08 00:24:33;;;;;;;8.30;5.18;;;4.90;85.50;;;;;;5073228;28;20120;-86
2020/12/08 00:26:59;;;;;;;7.43;4.82;;;4.90;85.50;;;;;;5073965;28;20044;-86
2020/12/08 00:29:25;;;;;;;8.10;5.35;;;5.00;85.50;;;;;;5055196;28;20438;-85
2020/12/08 00:31:50;;;;;;;9.00;5.72;;;5.00;85.30;;;;;;5074329;28;20146;-86
2020/12/08 00:34:16;;;;;;;9.02;5.85;;;5.10;85.30;;;;;;5046252;28;20048;-86
2020/12/08 00:36:41;;;;;;;8.70;5.18;;;5.10;85.20;;;;;;5069662;28;20493;-86
2020/12/08 00:39:07;;;;;;;7.55;5.07;;;5.10;85.10;;;;;;5071540;28;20359;-86
2020/12/08 00:41:32;;;;;;;9.27;5.93;;;5.10;85.10;;;;;;5071991;28;20029;-86
2020/12/08 00:43:58;;;;;;;7.45;5.13;;;5.10;84.90;;;;;;5069757;28;20111;-86
2020/12/08 00:46:24;;;;;;;6.95;4.93;;;5.20;85.00;;;;;;5071972;28;20031;-86
2020/12/08 00:48:49;;;;;;;8.68;5.32;;;5.20;85.00;;;;;;5065761;28;20142;-86
2020/12/08 00:51:15;;;;;;;8.32;5.55;;;5.20;85.00;;;;;;5072725;28;20068;-86
2020/12/08 00:53:40;;;;;;;6.93;3.70;;;5.20;84.90;;;;;;5071035;28;20020;-86
2020/12/08 00:56:13;;;;;;;10.88;7.07;;;5.20;84.80;;;;;;5052752;28;20024;-87
2020/12/08 00:58:39;;;;;;;11.57;7.47;;;5.10;84.80;;;;;;5054763;28;20025;-86
2020/12/08 01:01:05;;;;;;;8.82;6.05;;;5.00;84.80;;;;;;5071866;28;20031;-86
2020/12/08 01:03:32;;;;;;;7.22;4.75;;;5.00;85.00;;;;;;5067721;28;20024;-87
2020/12/08 01:05:59;;;;;;;9.35;6.13;;;5.00;85.00;;;;;;5068097;28;20033;-87
2020/12/08 01:08:25;;;;;;;10.88;7.65;;;4.90;85.10;;;;;;5065240;28;20028;-87
2020/12/08 01:10:52;;;;;;;10.27;6.07;;;4.80;85.20;;;;;;5048033;28;20024;-87
2020/12/08 01:13:18;;;;;;;6.93;4.60;;;4.80;85.40;;;;;;5074400;28;20211;-87
2020/12/08 01:15:43;;;;;;;7.60;5.75;;;4.80;85.60;;;;;;5044141;28;20020;-87
2020/12/08 01:18:10;;;;;;;7.20;4.95;;;4.80;85.60;;;;;;5071625;28;20040;-88
2020/12/08 01:20:36;;;;;;;8.32;5.78;;;4.80;85.60;;;;;;5071967;28;20017;-87
2020/12/08 01:23:02;;;;;;;7.57;5.50;;;4.80;85.50;;;;;;5072521;28;20496;-86
2020/12/08 01:25:27;;;;;;;11.23;6.80;;;4.80;86.10;;;;;;5071033;28;20031;-86
2020/12/08 01:27:53;;;;;;;5.22;3.58;;;4.70;85.50;;;;;;5071958;28;20036;-86
2020/12/08 01:30:19;;;;;;;8.32;5.78;;;4.70;85.50;;;;;;5051743;28;20111;-87
2020/12/08 01:32:45;;;;;;;8.38;6.13;;;4.70;85.50;;;;;;5053574;28;20056;-86
2020/12/08 01:35:11;;;;;;;8.13;5.75;;;4.70;85.60;;;;;;5071435;28;20048;-87
2020/12/08 01:37:37;;;;;;;9.82;6.68;;;4.70;85.60;;;;;;5072114;28;20024;-86
2020/12/08 01:40:04;;;;;;;10.35;7.85;;;4.60;85.60;;;;;;5070370;28;20032;-86
2020/12/08 01:42:29;;;;;;;12.40;8.68;;;4.60;85.70;;;;;;5068573;28;20139;-86
2020/12/08 01:44:55;;;;;;;11.77;7.80;;;4.50;85.70;;;;;;5071302;28;20450;-86
2020/12/08 01:47:22;;;;;;;11.73;6.68;;;4.50;85.80;;;;;;5071980;28;20102;-87
2020/12/08 01:49:48;;;;;;;8.82;5.78;;;4.40;85.90;;;;;;5071697;28;20027;-87
2020/12/08 01:52:17;;;;;;;8.27;6.03;;;4.40;86.00;;;;;;5070812;28;20025;-86
2020/12/08 01:54:45;;;;;;;10.13;7.13;;;4.40;86.10;;;;;;5054414;28;20016;-87
2020/12/08 01:57:10;;;;;;;10.88;7.32;;;4.30;86.00;;;;;;5070867;28;20025;-87
2020/12/08 01:59:36;;;;;;;10.35;6.72;;;4.30;86.10;;;;;;5071670;28;20025;-86
2020/12/08 02:02:03;;;;;;;9.18;6.38;;;4.30;86.10;;;;;;5071614;28;20032;-85
2020/12/08 02:04:30;;;;;;;11.23;7.57;;;4.30;86.10;;;;;;5070816;28;20122;-84
2020/12/08 02:06:56;;;;;;;9.60;6.68;;;4.30;86.30;;;;;;5071903;28;20067;-86
2020/12/08 02:09:22;;;;;;;11.32;7.57;;;4.20;86.20;;;;;;5055913;28;20048;-86
2020/12/08 02:11:48;;;;;;;11.30;7.57;;;4.20;86.20;;;;;;5060766;28;20048;-86
2020/12/08 02:14:13;;;;;;;12.18;8.27;;;4.20;86.20;;;;;;5052716;28;20021;-86
2020/12/08 02:16:39;;;;;;;10.13;7.00;;;4.20;86.20;;;;;;5072756;28;20032;-86
2020/12/08 02:19:05;;;;;;;11.27;7.85;;;4.20;86.30;;;;;;5074544;28;20466;-86
2020/12/08 02:21:33;;;;;;;11.35;7.50;;;4.30;86.30;;;;;;5073621;28;20111;-87
2020/12/08 02:23:59;;;;;;;9.05;6.00;;;4.30;86.20;;;;;;5052886;28;20410;-86
2020/12/08 02:26:25;;;;;;;9.93;7.22;;;4.30;86.30;;;;;;5070757;28;20033;-87
2020/12/08 02:28:51;;;;;;;11.13;7.72;;;4.30;86.20;;;;;;5071284;28;20039;-87
2020/12/08 02:31:16;;;;;;;10.13;7.40;;;4.30;86.20;;;;;;5069509;28;20115;-87
2020/12/08 02:33:42;;;;;;;10.35;7.20;;;4.30;86.10;;;;;;5071544;28;20017;-87
2020/12/08 02:36:08;;;;;;;9.82;6.80;;;4.30;86.10;;;;;;5071174;28;20032;-86
2020/12/08 02:38:33;;;;;;;9.32;6.60;;;4.30;86.10;;;;;;5053348;28;20151;-86
2020/12/08 02:40:59;;;;;;;8.73;5.45;;;4.20;86.10;;;;;;5073094;28;20025;-86
2020/12/08 02:43:24;;;;;;;12.18;7.35;;;4.20;86.20;;;;;;5073810;28;20028;-85
2020/12/08 02:45:50;;;;;;;12.02;8.65;;;4.20;86.20;;;;;;5071948;28;20021;-87
2020/12/08 02:48:17;;;;;;;11.95;7.85;;;4.20;86.20;;;;;;5057895;28;20056;-88
2020/12/08 02:50:45;;;;;;;9.23;6.28;;;4.20;86.30;;;;;;5058529;28;20378;-86
2020/12/08 02:53:10;;;;;;;10.65;6.97;;;4.20;86.50;;;;;;5059614;28;20029;-86
2020/12/08 02:55:36;;;;;;;8.05;5.68;;;4.20;86.50;;;;;;5086347;28;20039;-86
2020/12/08 02:58:02;;;;;;;10.75;7.65;;;4.20;86.50;;;;;;5096303;28;20069;-86
2020/12/08 03:00:28;;;;;;;9.90;6.50;;;4.20;86.50;;;;;;5095242;28;20013;-86
2020/12/08 03:02:53;;;;;;;9.85;6.88;;;4.20;86.50;;;;;;5059545;28;20618;-87
2020/12/08 03:05:19;;;;;;;11.75;7.90;;;4.10;86.50;;;;;;5076572;28;20024;-87
2020/12/08 03:07:45;;;;;;;7.63;5.00;;;4.00;86.50;;;;;;5076023;28;20029;-86
2020/12/08 03:10:12;;;;;;;13.20;8.40;;;4.10;86.70;;;;;;5095941;28;20330;-86
2020/12/08 03:12:40;;;;;;;10.93;7.28;;;4.10;86.70;;;;;;5081740;28;20215;-86
2020/12/08 03:15:07;;;;;;;11.70;7.80;;;4.00;86.70;;;;;;5072260;28;20021;-87
2020/12/08 03:17:33;;;;;;;10.00;7.10;;;4.00;86.80;;;;;;5072570;28;20025;-86
2020/12/08 03:19:58;;;;;;;9.30;6.35;;;4.00;86.80;;;;;;5049697;28;20103;-88
2020/12/08 03:22:24;;;;;;;10.27;6.53;;;4.00;86.80;;;;;;5053580;28;22141;-85
2020/12/08 03:24:50;;;;;;;9.93;6.72;;;4.00;86.90;;;;;;5040094;28;20039;-85
2020/12/08 03:27:16;;;;;;;9.90;6.60;;;3.90;86.90;;;;;;5045733;28;20028;-85
2020/12/08 03:29:42;;;;;;;11.50;7.10;;;3.90;87.00;;;;;;5072078;28;20040;-85
2020/12/08 03:32:08;;;;;;;10.52;7.05;;;3.90;87.00;;;;;;5053928;28;20036;-85
2020/12/08 03:34:33;;;;;;;10.60;6.03;;;3.80;87.00;;;;;;5040834;28;20600;-85
2020/12/08 03:36:59;;;;;;;10.65;6.88;;;3.90;87.10;;;;;;5069855;28;20029;-87
2020/12/08 03:39:25;;;;;;;10.10;7.53;;;3.90;87.00;;;;;;5066696;28;20359;-87
2020/12/08 03:41:50;;;;;;;12.90;8.65;;;3.80;87.10;;;;;;5070929;28;20032;-87
2020/12/08 03:44:16;;;;;;;12.93;8.77;;;3.80;87.10;;;;;;5043659;28;20068;-87
2020/12/08 03:46:41;;;;;;;11.43;7.70;;;3.90;87.10;;;;;;5070245;28;20052;-87
2020/12/08 03:49:07;;;;;;;10.80;7.20;;;3.80;87.00;;;;;;5070883;28;20028;-87
2020/12/08 03:51:33;;;;;;;11.75;7.80;;;3.80;87.00;;;;;;5070842;28;20059;-87
2020/12/08 03:53:58;;;;;;;10.50;7.88;;;3.80;87.00;;;;;;5052188;28;20028;-87
2020/12/08 03:56:24;;;;;;;12.80;8.98;;;3.80;87.00;;;;;;5084975;28;20029;-87
2020/12/08 03:58:50;;;;;;;13.05;8.52;;;3.80;86.90;;;;;;5086013;28;20017;-86
2020/12/08 04:01:21;;;;;;;14.05;9.85;;;3.90;87.00;;;;;;5083368;28;20036;-87
2020/12/08 04:03:48;;;;;;;13.45;9.45;;;3.90;86.80;;;;;;5047294;28;20028;-87
2020/12/08 04:06:14;;;;;;;11.20;7.55;;;3.90;86.80;;;;;;5069605;28;20025;-86
2020/12/08 04:08:41;;;;;;;10.95;7.45;;;3.80;86.80;;;;;;5056316;28;20044;-86
2020/12/08 04:11:07;;;;;;;10.18;7.45;;;3.80;86.80;;;;;;5072581;28;20030;-87
2020/12/08 04:13:33;;;;;;;11.13;6.95;;;3.80;86.70;;;;;;5066374;28;20078;-86
2020/12/08 04:15:59;;;;;;;8.95;6.00;;;3.80;86.70;;;;;;5073913;28;20026;-87
2020/12/08 04:18:25;;;;;;;12.52;8.80;;;3.90;86.70;;;;;;5074159;28;20074;-89
2020/12/08 04:20:51;;;;;;;15.05;9.45;;;3.90;86.60;;;;;;5074146;28;20020;-86
2020/12/08 04:23:19;;;;;;;11.73;7.88;;;3.80;86.60;;;;;;5072681;28;20024;-85
2020/12/08 04:25:46;;;;;;;10.95;7.00;;;3.60;86.60;;;;;;5051350;28;20029;-85
2020/12/08 04:28:11;;;;;;;10.55;7.38;;;3.80;86.70;;;;;;5071857;28;20430;-85
2020/12/08 04:30:38;;;;;;;11.43;8.00;;;3.80;86.90;;;;;;5073480;28;20020;-86
2020/12/08 04:33:05;;;;;;;14.48;10.00;;;3.80;86.60;;;;;;5073186;28;20036;-86
2020/12/08 04:35:30;;;;;;;10.35;7.57;;;3.70;86.60;;;;;;5076458;28;20062;-85
2020/12/08 04:37:56;;;;;;;14.10;10.18;;;3.70;86.60;;;;;;5070034;28;20416;-86
2020/12/08 04:40:22;;;;;;;10.07;6.93;;;3.70;87.20;;;;;;5072295;28;20052;-85
2020/12/08 04:42:49;;;;;;;12.90;8.30;;;3.70;86.60;;;;;;5072464;28;20059;-85
2020/12/08 04:45:17;;;;;;;14.00;9.75;;;3.70;86.60;;;;;;5055563;28;20024;-86
2020/12/08 04:47:44;;;;;;;10.35;7.40;;;3.60;86.50;;;;;;5073479;28;20059;-86
2020/12/08 04:50:12;;;;;;;11.60;8.20;;;3.70;86.70;;;;;;5073315;28;20035;-87
2020/12/08 04:52:38;;;;;;;12.70;9.15;;;3.70;86.70;;;;;;5072966;28;20525;-87
2020/12/08 04:55:04;;;;;;;12.93;8.60;;;3.70;86.70;;;;;;5073068;28;20107;-86
2020/12/08 04:57:30;;;;;;;12.00;8.98;;;3.70;86.60;;;;;;5055667;28;20020;-86
2020/12/08 05:00:08;;;;;;;10.75;7.53;;;3.70;86.60;;;;;;5071377;28;20438;-86
2020/12/08 05:02:46;;;;;;;11.70;8.25;;;3.70;86.60;;;;;;5052919;28;20027;-86
2020/12/08 05:05:12;;;;;;;11.82;8.20;;;3.70;86.50;;;;;;5060544;28;20021;-85
2020/12/08 05:07:37;;;;;;;11.32;7.80;;;3.70;86.50;;;;;;5076711;28;20024;-86
2020/12/08 05:10:03;;;;;;;12.27;8.80;;;3.80;86.50;;;;;;5073875;28;20031;-87
2020/12/08 05:12:28;;;;;;;10.65;8.13;;;3.70;86.30;;;;;;5074540;28;20020;-87
2020/12/08 05:14:54;;;;;;;12.35;8.65;;;3.70;86.40;;;;;;5072477;28;20032;-87
2020/12/08 05:17:24;;;;;;;11.88;8.25;;;3.70;86.40;;;;;;5067779;28;20070;-86
2020/12/08 05:20:12;;;;;;;9.68;7.20;;;3.70;86.30;;;;;;5039402;28;20039;-87
2020/12/08 05:22:39;;;;;;;11.98;8.80;;;3.70;86.30;;;;;;5048614;28;20039;-87
2020/12/08 05:25:12;;;;;;;13.40;9.52;;;3.70;86.30;;;;;;5038018;28;20070;-87
2020/12/08 05:27:38;;;;;;;12.55;8.80;;;3.60;86.30;;;;;;5056282;28;20399;-87
2020/12/08 05:30:08;;;;;;;14.18;10.25;;;3.60;86.30;;;;;;5073686;28;20076;-85
2020/12/08 05:32:38;;;;;;;11.90;8.30;;;3.60;86.30;;;;;;5074589;28;20028;-86
2020/12/08 05:35:11;;;;;;;16.25;10.88;;;3.60;86.50;;;;;;5056064;28;20024;-86
2020/12/08 05:37:37;;;;;;;;;;;3.60;86.50;;;;;;5072234;28;20547;-86
2020/12/08 05:40:09;;;;;;;13.05;9.10;;;3.60;86.50;;;;;;5067613;28;19908;-86
2020/12/08 05:42:37;;;;;;;15.90;10.95;;;3.60;86.60;;;;;;5070615;28;20024;-86
2020/12/08 05:45:05;;;;;;;14.52;10.43;;;3.50;86.50;;;;;;5057648;28;20481;-86
2020/12/08 05:47:40;;;;;;;13.40;9.20;;;3.50;86.50;;;;;;5074240;28;20124;-86
2020/12/08 05:50:06;;;;;;;15.05;10.75;;;3.50;86.50;;;;;;5060919;28;20039;-86
2020/12/08 05:52:33;;;;;;;12.05;8.80;;;3.40;86.60;;;;;;5081260;28;20036;-86
2020/12/08 05:55:14;;;;;;;11.02;8.20;;;3.50;86.80;;;;;;5082780;28;20020;-86
2020/12/08 05:57:40;;;;;;;11.73;8.60;;;3.50;86.70;;;;;;5087285;28;20092;-86
2020/12/08 06:00:07;;;;;;;14.65;10.60;;;3.50;86.60;;;;;;5097159;28;20025;-86
2020/12/08 06:02:33;;;;;;;14.23;10.32;;;3.50;86.60;;;;;;5087250;28;20005;-86
2020/12/08 06:04:59;;;;;;;14.63;10.93;;;3.50;86.50;;;;;;5091346;28;20032;-86
2020/12/08 06:07:32;;;;;;;12.48;8.60;;;3.50;86.60;;;;;;5089922;28;20041;-86
2020/12/08 06:10:09;;;;;;;10.40;7.28;;;3.50;86.60;;;;;;5083426;28;20059;-86
2020/12/08 06:12:36;;;;;;;12.45;9.13;;;3.50;86.60;;;;;;5065817;28;20020;-88
2020/12/08 06:15:17;;;;;;;12.77;9.15;;;3.60;86.50;;;;;;5088826;28;20069;-87
2020/12/08 06:17:46;;;;;;;14.40;10.32;;;3.60;86.60;;;;;;5086284;28;20017;-88
2020/12/08 06:20:12;;;;;;;13.40;9.00;;;3.60;86.40;;;;;;5087622;28;20039;-87
2020/12/08 06:22:38;;;;;;;15.25;10.68;;;3.60;86.50;;;;;;5065792;28;20033;-87
2020/12/08 06:25:04;;;;;;;11.25;8.80;;;3.60;86.40;;;;;;5085392;28;20020;-86
2020/12/08 06:27:31;;;;;;;13.20;9.20;;;3.70;86.50;;;;;;5085579;28;20033;-86
2020/12/08 06:29:56;;;;;;;10.35;7.05;;;3.70;86.30;;;;;;5079683;28;20026;-86
2020/12/08 06:32:31;;;;;;;16.75;12.00;;;3.70;86.20;;;;;;5071516;28;20726;-88
2020/12/08 06:35:05;;;;;;;14.75;9.77;;;3.70;86.10;;;;;;5049952;28;20035;-88
2020/12/08 06:37:31;;;;;;;14.80;10.18;;;3.70;86.20;;;;;;5066213;28;20024;-87
2020/12/08 06:40:11;;;;;;;16.70;11.35;;;3.70;86.30;;;;;;5047660;28;20028;-87
2020/12/08 06:42:36;;;;;;;15.23;11.18;;;3.60;86.30;;;;;;5069540;28;20490;-87
2020/12/08 06:45:10;;;;;;;12.90;9.30;;;3.60;86.30;;;;;;5070161;28;20031;-88
2020/12/08 06:47:38;;;;;;;13.82;9.85;;;3.50;86.30;;;;;;5072828;28;20064;-90
2020/12/08 06:50:28;;;;;;;14.15;10.35;;;3.50;86.50;;;;;;5067358;28;20040;-93
2020/12/08 06:52:56;;;;;;;12.40;9.25;;;3.50;86.70;;;;;;5037520;28;20043;-88
2020/12/08 06:55:22;;;;;;;13.40;9.55;;;3.50;86.70;;;;;;5048455;28;20044;-88
2020/12/08 06:57:48;;;;;;;14.18;10.55;;;3.50;86.70;;;;;;5051153;28;20048;-88
2020/12/08 07:00:14;;;;;;;15.85;11.15;;;3.50;86.60;;;;;;5066819;28;20024;-88
2020/12/08 07:02:51;;;;;;;14.50;10.55;;;3.50;86.70;;;;;;5068895;28;20543;-86
2020/12/08 07:05:22;;;;;;;14.60;10.52;;;3.50;86.70;;;;;;5070645;28;20032;-88
2020/12/08 07:07:49;;;;;;;13.30;9.32;;;3.50;86.80;;;;;;5071309;28;20037;-90
2020/12/08 07:10:19;;;;;;;16.45;12.40;;;3.50;86.80;;;;;;5073255;28;20144;-87
2020/12/08 07:12:49;;;;;;;14.27;10.30;;;3.50;86.80;;;;;;5073911;28;20139;-88
2020/12/08 07:15:17;;;;;;;15.68;11.50;;;3.50;86.80;;;;;;5069880;28;20029;-88
2020/12/08 07:17:44;;;;;;;16.33;11.20;;;3.50;86.80;;;;;;5079562;28;20080;-88
2020/12/08 07:20:12;;;;;;;12.80;9.40;;;3.50;86.80;;;;;;5075694;28;20052;-88
2020/12/08 07:22:43;;;;;;;14.20;9.95;;;3.50;86.90;;;;;;5092041;28;20548;-86
2020/12/08 07:25:11;;;;;;;13.77;9.32;;;3.50;86.90;;;;;;5074306;28;20035;-88
2020/12/08 07:27:42;;;;;;;14.15;9.80;;;3.50;86.80;;;;;;5071562;28;20115;-88
2020/12/08 07:30:07;;;;;;;13.60;9.15;;;3.50;86.80;;;;;;5072255;28;20024;-88
2020/12/08 07:32:33;;;;;;;15.35;10.73;;;3.60;86.90;;;;;;5085120;28;20091;-88
2020/12/08 07:35:01;;;;;;;13.98;10.07;;;3.60;86.90;;;;;;5075412;28;20052;-90
2020/12/08 07:37:26;;;;;;;13.00;9.07;;;3.60;86.90;;;;;;5076649;28;20741;-88
2020/12/08 07:40:05;;;;;;;17.20;11.88;;;3.60;86.90;;;;;;5067591;28;20044;-86
2020/12/08 07:42:30;;;;;;;11.85;8.90;;;3.70;86.90;;;;;;5058742;28;20055;-86
2020/12/08 07:44:58;;;;;;;21.42;14.38;;;3.70;86.80;;;;;;5089314;28;20052;-87
2020/12/08 07:47:23;;;;;;;16.23;10.95;;;3.60;86.80;;;;;;5090739;28;20028;-88
2020/12/08 07:49:49;;;;;;;15.75;10.63;;;3.60;86.80;;;;;;5067650;28;20036;-87
2020/12/08 07:52:18;;;;;;;13.30;9.27;;;3.70;86.90;;;;;;5051782;28;20024;-87
2020/12/08 07:54:44;;;;;;;14.90;10.00;;;3.80;86.80;;;;;;5073330;28;20005;-87
2020/12/08 07:57:10;;;;;;;19.42;13.20;;;3.80;86.70;;;;;;5086921;28;20159;-89
2020/12/08 07:59:37;;;;;;;18.13;12.68;;;3.80;86.70;;;;;;5057761;28;20393;-90
2020/12/08 08:02:02;;;;;;;16.05;11.07;;;3.80;86.70;;;;;;5068388;28;20032;-92
2020/12/08 08:04:42;;;;;;;14.07;10.38;;;3.80;86.60;;;;;;5047538;28;20087;-92
2020/12/08 08:07:08;;;;;;;16.10;11.85;;;3.80;86.70;;;;;;5046919;28;20099;-87
2020/12/08 08:09:33;;;;;;;16.98;12.32;;;3.90;86.60;;;;;;5054026;28;20063;-86
2020/12/08 08:12:01;;;;;;;18.25;12.52;;;3.90;86.60;;;;;;5064103;28;20040;-86
2020/12/08 08:14:27;;;;;;;16.27;11.50;;;3.90;86.70;;;;;;5029399;28;20051;-86
2020/12/08 08:16:52;;;;;;;17.00;11.20;;;3.90;86.60;;;;;;5046061;28;20020;-86
2020/12/08 08:19:18;;;;;;;17.65;11.68;;;3.90;86.60;;;;;;5059105;28;20095;-87
2020/12/08 08:21:46;;;;;;;15.52;10.98;;;3.90;86.60;;;;;;5062694;28;20087;-86
2020/12/08 08:24:12;;;;;;;19.95;13.95;;;3.90;86.60;;;;;;5051948;28;20043;-89
2020/12/08 08:26:41;;;;;;;15.40;10.38;;;3.90;86.50;;;;;;5032157;28;20021;-85
2020/12/08 08:29:10;;;;;;;16.65;11.35;;;3.90;86.50;;;;;;5044967;28;20045;-87
2020/12/08 08:31:35;;;;;;;14.90;10.40;;;4.00;86.50;;;;;;5064716;28;20112;-88
2020/12/08 08:34:02;;;;;;;14.13;10.02;;;4.00;86.40;;;;;;5039163;28;20120;-87
2020/12/08 08:36:27;;;;;;;12.90;9.88;;;4.00;86.40;;;;;;5036379;28;20032;-87
2020/12/08 08:38:53;;;;;;;15.48;10.45;;;4.10;86.40;;;;;;5062121;28;20027;-88
2020/12/08 08:41:19;;;;;;;17.67;12.35;;;4.10;86.30;;;;;;5064212;28;20027;-88
2020/12/08 08:43:44;;;;;;;13.70;9.27;;;4.10;86.20;;;;;;5038993;28;20043;-87
2020/12/08 08:46:12;;;;;;;20.90;14.75;;;4.10;86.20;;;;;;5063979;28;20029;-89
2020/12/08 08:48:37;;;;;;;17.00;11.35;;;4.00;86.10;;;;;;5061618;28;20037;-88
2020/12/08 08:51:03;;;;;;;18.25;13.45;;;4.00;86.20;;;;;;5049302;28;20043;-87
2020/12/08 08:53:28;;;;;;;17.00;11.43;;;4.00;86.20;;;;;;5069159;28;20124;-87
2020/12/08 08:55:54;;;;;;;13.80;9.98;;;4.00;86.30;;;;;;5045426;28;20066;-91
2020/12/08 08:58:19;;;;;;;13.88;9.15;;;4.10;86.30;;;;;;5050439;28;20060;-88
2020/12/08 09:00:45;;;;;;;17.65;11.60;;;4.20;86.20;;;;;;5069414;28;20029;-87
2020/12/08 09:03:10;;;;;;;16.58;11.05;;;4.20;86.10;;;;;;5065095;28;20036;-84
2020/12/08 09:05:37;;;;;;;12.95;8.93;;;4.20;86.10;;;;;;5068465;28;20024;-86
2020/12/08 09:08:03;;;;;;;13.43;9.45;;;4.20;86.00;;;;;;5067400;28;20040;-86
2020/12/08 09:10:28;;;;;;;19.10;13.80;;;4.20;86.00;;;;;;5066843;28;20032;-86
2020/12/08 09:12:54;;;;;;;15.98;11.63;;;4.20;85.80;;;;;;5067833;28;20433;-85
2020/12/08 09:15:20;;;;;;;17.85;12.10;;;4.20;85.90;;;;;;5048686;28;20167;-85
2020/12/08 09:17:45;;;;;;;17.15;11.85;;;4.20;86.00;;;;;;5049842;28;20032;-87
2020/12/08 09:20:11;;;;;;;14.25;10.48;;;4.20;86.00;;;;;;5066551;28;20020;-87
2020/12/08 09:22:36;;;;;;;16.50;12.02;;;4.20;86.00;;;;;;5045404;28;20024;-86
2020/12/08 09:25:02;;;;;;;14.82;10.45;;;4.20;86.00;;;;;;5051011;28;20040;-86
2020/12/08 09:27:28;;;;;;;14.52;10.50;;;4.20;86.00;;;;;;5067817;28;20045;-85
2020/12/08 09:29:54;;;;;;;16.33;12.00;;;4.20;85.90;;;;;;5063656;28;20029;-85
2020/12/08 09:32:19;;;;;;;12.88;9.05;;;4.30;85.90;;;;;;5052746;28;20021;-85
2020/12/08 09:34:45;;;;;;;13.82;10.02;;;4.30;85.90;;;;;;5046926;28;20048;-85
2020/12/08 09:37:11;;;;;;;11.27;8.38;;;4.40;85.80;;;;;;5062239;28;20075;-87
2020/12/08 09:39:37;;;;;;;15.02;10.77;;;4.40;85.70;;;;;;5067412;28;20024;-87
2020/12/08 09:42:03;;;;;;;11.90;9.13;;;4.50;85.60;;;;;;5044528;28;20040;-88
2020/12/08 09:44:29;;;;;;;13.05;9.75;;;4.50;85.60;;;;;;5048596;28;20020;-87
2020/12/08 09:46:55;;;;;;;13.40;9.65;;;4.50;85.50;;;;;;5065837;28;20223;-87
2020/12/08 09:49:21;;;;;;;11.60;8.75;;;4.60;85.40;;;;;;5060741;28;20658;-86
2020/12/08 09:51:48;;;;;;;11.55;8.48;;;4.60;85.40;;;;;;5039698;28;20390;-88
2020/12/08 09:54:13;;;;;;;12.02;9.02;;;4.70;85.30;;;;;;5042772;28;20029;-88
2020/12/08 09:56:39;;;;;;;8.98;6.85;;;4.80;85.30;;;;;;5054495;28;20035;-84
2020/12/08 09:59:06;;;;;;;11.70;7.78;;;4.80;85.20;;;;;;5068568;28;20055;-87
2020/12/08 10:01:33;;;;;;;9.25;6.95;;;4.90;85.00;;;;;;5068626;28;20049;-87
2020/12/08 10:04:00;;;;;;;12.02;8.82;;;5.00;84.80;;;;;;5067313;28;20039;-87
2020/12/08 10:06:25;;;;;;;12.15;8.88;;;5.00;84.80;;;;;;5067661;28;20037;-86
2020/12/08 10:08:55;;;;;;;11.57;8.13;;;5.00;84.60;;;;;;5063247;28;20052;-85
2020/12/08 10:11:24;;;;;;;10.25;7.40;;;5.10;84.60;;;;;;5030294;28;20040;-86
2020/12/08 10:13:51;;;;;;;8.20;5.70;;;5.20;84.40;;;;;;5048749;28;20048;-87
2020/12/08 10:16:24;;;;;;;10.02;7.65;;;5.20;84.30;;;;;;5067329;28;20474;-86
2020/12/08 10:18:51;;;;;;;10.38;7.43;;;5.30;84.30;;;;;;5066682;28;20029;-86
2020/12/08 10:21:23;;;;;;;11.02;7.60;;;5.30;84.10;;;;;;5047252;28;20025;-86
2020/12/08 10:23:50;;;;;;;15.23;11.07;;;5.40;84.10;;;;;;5048401;28;20469;-87
2020/12/08 10:26:16;;;;;;;11.15;8.02;;;5.30;83.70;;;;;;5067043;28;20044;-88
2020/12/08 10:28:41;;;;;;;14.20;10.52;;;5.30;83.70;;;;;;5065743;28;20028;-85
2020/12/08 10:31:07;;;;;;;16.67;10.48;;;5.30;83.80;;;;;;5054848;28;20036;-86
2020/12/08 10:33:33;;;;;;;14.13;10.00;;;5.30;83.80;;;;;;5059319;28;20033;-86
2020/12/08 10:36:00;;;;;;;17.67;13.02;;;5.30;83.80;;;;;;5053471;28;20047;-86
2020/12/08 10:38:26;;;;;;;14.18;9.52;;;5.30;83.60;;;;;;5054845;28;20021;-85
2020/12/08 10:40:51;;;;;;;14.68;10.27;;;5.30;83.60;;;;;;5071202;28;20028;-88
2020/12/08 10:43:19;;;;;;;15.80;11.23;;;5.30;83.60;;;;;;5065834;28;20081;-87
2020/12/08 10:45:45;;;;;;;17.70;12.70;;;5.20;83.40;;;;;;5049104;28;20382;-86
2020/12/08 10:48:11;;;;;;;15.30;10.73;;;5.20;83.20;;;;;;5040910;28;20029;-87
2020/12/08 10:50:36;;;;;;;14.68;10.75;;;5.20;83.90;;;;;;5066943;28;20082;-87
2020/12/08 10:53:02;;;;;;;14.10;10.20;;;5.30;83.40;;;;;;5066452;28;20056;-88
2020/12/08 10:55:27;;;;;;;17.63;12.32;;;5.30;83.40;;;;;;5054919;28;20033;-87
2020/12/08 10:57:53;;;;;;;14.25;10.02;;;5.40;83.20;;;;;;5065159;28;20044;-87
2020/12/08 11:00:19;;;;;;;13.43;9.52;;;5.40;83.30;;;;;;5058478;28;20021;-89
2020/12/08 11:02:44;;;;;;;12.10;8.13;;;5.50;83.30;;;;;;5047212;28;20063;-89
2020/12/08 11:05:10;;;;;;;16.13;12.35;;;5.50;83.20;;;;;;5067210;28;20032;-89
2020/12/08 11:07:36;;;;;;;17.58;12.93;;;5.60;83.10;;;;;;5049083;28;20127;-87
2020/12/08 11:10:03;;;;;;;16.13;11.98;;;5.50;82.80;;;;;;5058208;28;20116;-88
2020/12/08 11:12:28;;;;;;;14.23;10.52;;;5.50;82.90;;;;;;5042585;28;20043;-86
2020/12/08 11:14:55;;;;;;;11.35;8.13;;;5.50;83.00;;;;;;5049406;28;20029;-86
2020/12/08 11:17:21;;;;;;;10.15;7.28;;;5.60;83.10;;;;;;5055005;28;20039;-85
2020/12/08 11:19:46;;;;;;;11.60;8.73;;;5.60;83.10;;;;;;5051853;28;20036;-85
2020/12/08 11:22:12;;;;;;;15.30;11.45;;;5.70;83.10;;;;;;5045578;28;20182;-87
2020/12/08 11:24:39;;;;;;;16.77;12.52;;;5.60;82.70;;;;;;5064290;28;20032;-85
2020/12/08 11:27:05;;;;;;;13.38;10.07;;;5.60;82.70;;;;;;5063691;28;20045;-86
2020/12/08 11:29:30;;;;;;;11.85;8.85;;;5.60;82.90;;;;;;5044583;28;20530;-86
2020/12/08 11:31:56;;;;;;;10.73;7.85;;;5.60;83.00;;;;;;5056113;28;20131;-86
2020/12/08 11:34:24;;;;;;;12.43;8.63;;;5.70;83.00;;;;;;5060685;28;20029;-86
2020/12/08 11:36:55;;;;;;;10.90;8.02;;;5.70;83.00;;;;;;5044381;28;20495;-86
2020/12/08 11:39:21;;;;;;;13.40;9.98;;;5.80;83.00;;;;;;5043480;28;20025;-86
2020/12/08 11:41:46;;;;;;;14.35;10.18;;;5.80;82.80;;;;;;5064814;28;20401;-86
2020/12/08 11:44:12;;;;;;;11.88;8.98;;;5.90;82.70;;;;;;5050283;28;20097;-87
2020/12/08 11:46:38;;;;;;;12.07;8.75;;;5.90;82.70;;;;;;5043085;28;20064;-87
2020/12/08 11:49:04;;;;;;;13.10;10.45;;;6.00;82.70;;;;;;5060285;28;20064;-87
2020/12/08 11:51:32;;;;;;;14.75;10.73;;;6.00;82.50;;;;;;5064068;28;20067;-86
2020/12/08 11:53:58;;;;;;;12.93;9.35;;;6.00;82.40;;;;;;5057237;28;20109;-86
2020/12/08 11:56:27;;;;;;;11.35;8.65;;;6.00;82.40;;;;;;5048081;28;20119;-87
2020/12/08 11:58:53;;;;;;;13.02;10.05;;;6.10;82.30;;;;;;5065660;28;20017;-87
2020/12/08 12:01:19;;;;;;;12.65;8.88;;;6.00;82.00;;;;;;5065479;28;20029;-88
2020/12/08 12:03:44;;;;;;;9.75;7.10;;;6.00;82.10;;;;;;5070083;28;20048;-88
2020/12/08 12:06:13;;;;;;;10.68;7.78;;;6.10;82.30;;;;;;5068504;28;20067;-85
2020/12/08 12:08:39;;;;;;;13.35;9.38;;;6.20;82.20;;;;;;5066170;28;20029;-88
2020/12/08 12:11:06;;;;;;;13.18;9.38;;;6.20;81.90;;;;;;5057366;28;20484;-87
2020/12/08 12:13:32;;;;;;;11.95;8.32;;;6.20;81.80;;;;;;5068095;28;20021;-86
2020/12/08 12:15:57;;;;;;;11.30;8.43;;;6.20;81.80;;;;;;5069316;28;20062;-86
2020/12/08 12:18:23;;;;;;;12.25;8.50;;;6.30;81.70;;;;;;5090737;28;20028;-86
2020/12/08 12:20:48;;;;;;;8.55;6.53;;;6.20;81.60;;;;;;5091105;28;20025;-86
2020/12/08 12:23:14;;;;;;;8.73;5.93;;;6.30;81.80;;;;;;5077345;28;20032;-87
2020/12/08 12:25:40;;;;;;;7.40;5.60;;;6.40;81.80;;;;;;5082309;28;20040;-86
2020/12/08 12:28:05;;;;;;;11.25;7.90;;;6.50;81.70;;;;;;5064340;28;20036;-87
2020/12/08 12:30:31;;;;;;;7.18;5.57;;;6.70;81.50;;;;;;5059927;28;20031;-87
2020/12/08 12:32:56;;;;;;;11.75;8.63;;;6.90;81.10;;;;;;5073123;28;20028;-87
2020/12/08 12:35:22;;;;;;;10.20;7.38;;;7.10;80.60;;;;;;5069026;28;20157;-87
2020/12/08 12:37:48;;;;;;;10.35;8.00;;;7.40;79.80;;;;;;5049704;28;20480;-87
2020/12/08 12:40:13;;;;;;;10.15;8.10;;;7.30;79.80;;;;;;5068152;28;20112;-87
2020/12/08 12:42:39;;;;;;;10.77;8.35;;;7.70;79.70;;;;;;5056564;28;20036;-86